MMZO

Playa De Oro International Airport

Manzanillo, Mexico
TAF MMZO 181639Z 1818/1918 24010KT P6SM SCT020 BKN100 BKN250 FM190300 35005KT P6SM BKN250 FM191600 20006KT P6SM SCT280
Issued Valid From Valid To
Jul-18 @ 16:39 UTC
(6 hours ago)
Jul-18 @ 18:00 UTC
(4 hours ago)
Jul-19 @ 18:00 UTC
(in 20 hours)
Jul-18 @ 18:00 to Jul-19 @ 03:00
TAF MMZO 181639Z 1818/1918 24010KT P6SM SCT020 BKN100 BKN250
Wind Visibility Clouds
240° at 10 knots Greater than 6 miles
  • Scattered at 2,000' AGL
  • Broken at 10,000' AGL
  • Broken at 25,000' AGL
From Jul-19 @ 03:00 to Jul-19 @ 16:00
FM190300 35005KT P6SM BKN250
Wind Visibility Clouds
350° at 5 knots Greater than 6 miles
  • Broken at 25,000' AGL
From Jul-19 @ 16:00 to Jul-19 @ 18:00
FM191600 20006KT P6SM SCT280
Wind Visibility Clouds
200° at 6 knots Greater than 6 miles
  • Scattered at 28,000' AGL
TAF MMZO 181639Z 1818/1918 24010KT P6SM SCT020 BKN100 BKN250 FM190300 35005KT P6SM BKN250 FM191600 20006KT P6SM SCT280
Issued Jul-18 @ 16:39 UTC
(6 hours ago)
Valid From Jul-18 @ 18:00 UTC
(4 hours ago)
Valid To Jul-19 @ 18:00 UTC
(in 20 hours)
Jul-18 @ 18:00 - Jul-19 @ 03:00
Wind Visibility
240° at 10 knots Greater than 6 miles
Clouds
  • Scattered at 2,000' AGL
  • Broken at 10,000' AGL
  • Broken at 25,000' AGL
From Jul-19 @ 03:00 - Jul-19 @ 16:00
Wind Visibility
350° at 5 knots Greater than 6 miles
Clouds
  • Broken at 25,000' AGL
From Jul-19 @ 16:00 - Jul-19 @ 18:00
Wind Visibility
200° at 6 knots Greater than 6 miles
Clouds
  • Scattered at 28,000' AGL